sensor_id;sensor_type;location;lat;lon;timestamp;pressure;altitude;pressure_sealevel;temperature;humidity
40838;BME280;29632;49.168;9.848;2023-01-26T00:00:42;97283.06;;;6.42;50.43
40838;BME280;29632;49.168;9.848;2023-01-26T00:03:08;97284.09;;;6.40;50.56
40838;BME280;29632;49.168;9.848;2023-01-26T00:05:36;97280.56;;;6.41;50.56
40838;BME280;29632;49.168;9.848;2023-01-26T00:08:02;97271.78;;;6.43;50.41
40838;BME280;29632;49.168;9.848;2023-01-26T00:10:27;97264.75;;;6.46;50.67
40838;BME280;29632;49.168;9.848;2023-01-26T00:12:53;97261.22;;;6.47;50.22
40838;BME280;29632;49.168;9.848;2023-01-26T00:15:19;97255.22;;;6.46;50.62
40838;BME280;29632;49.168;9.848;2023-01-26T00:17:44;97250.03;;;6.46;50.18
40838;BME280;29632;49.168;9.848;2023-01-26T00:20:10;97255.00;;;6.49;50.69
40838;BME280;29632;49.168;9.848;2023-01-26T00:22:36;97248.41;;;6.45;50.48
40838;BME280;29632;49.168;9.848;2023-01-26T00:25:01;97241.75;;;6.41;50.08
40838;BME280;29632;49.168;9.848;2023-01-26T00:27:27;97242.19;;;6.35;50.22
40838;BME280;29632;49.168;9.848;2023-01-26T00:29:53;97241.69;;;6.30;50.32
40838;BME280;29632;49.168;9.848;2023-01-26T00:32:18;97235.81;;;6.28;50.19
40838;BME280;29632;49.168;9.848;2023-01-26T00:34:44;97240.13;;;6.27;50.68
40838;BME280;29632;49.168;9.848;2023-01-26T00:37:10;97238.50;;;6.26;50.61
40838;BME280;29632;49.168;9.848;2023-01-26T00:39:35;97230.00;;;6.24;50.70
40838;BME280;29632;49.168;9.848;2023-01-26T00:42:01;97225.66;;;6.24;50.66
40838;BME280;29632;49.168;9.848;2023-01-26T00:44:36;97229.16;;;6.23;50.30
40838;BME280;29632;49.168;9.848;2023-01-26T00:47:03;97222.47;;;6.21;50.33
40838;BME280;29632;49.168;9.848;2023-01-26T00:49:29;97223.47;;;6.18;50.48
40838;BME280;29632;49.168;9.848;2023-01-26T00:51:54;97223.81;;;6.14;50.52
40838;BME280;29632;49.168;9.848;2023-01-26T00:54:20;97213.78;;;6.09;50.91
40838;BME280;29632;49.168;9.848;2023-01-26T00:56:45;97219.03;;;6.08;50.39
40838;BME280;29632;49.168;9.848;2023-01-26T00:59:11;97218.22;;;6.07;50.85
40838;BME280;29632;49.168;9.848;2023-01-26T01:01:37;97216.47;;;6.08;50.84
40838;BME280;29632;49.168;9.848;2023-01-26T01:04:02;97213.88;;;6.08;50.44
40838;BME280;29632;49.168;9.848;2023-01-26T01:06:28;97208.91;;;6.04;50.59
40838;BME280;29632;49.168;9.848;2023-01-26T01:08:54;97204.19;;;5.98;50.58
40838;BME280;29632;49.168;9.848;2023-01-26T01:11:19;97202.72;;;5.94;50.51
40838;BME280;29632;49.168;9.848;2023-01-26T01:13:45;97209.94;;;5.89;50.64
40838;BME280;29632;49.168;9.848;2023-01-26T01:16:13;97222.25;;;5.85;50.73
40838;BME280;29632;49.168;9.848;2023-01-26T01:18:39;97213.66;;;5.85;50.19
40838;BME280;29632;49.168;9.848;2023-01-26T01:21:10;97217.19;;;5.84;50.60
40838;BME280;29632;49.168;9.848;2023-01-26T01:23:36;97206.00;;;5.83;50.15
40838;BME280;29632;49.168;9.848;2023-01-26T01:26:03;97205.91;;;5.85;50.47
40838;BME280;29632;49.168;9.848;2023-01-26T01:28:29;97202.41;;;5.86;50.43
40838;BME280;29632;49.168;9.848;2023-01-26T01:30:55;97211.69;;;5.89;50.53
40838;BME280;29632;49.168;9.848;2023-01-26T01:33:21;97204.88;;;5.88;50.75
40838;BME280;29632;49.168;9.848;2023-01-26T01:36:00;97210.06;;;5.88;50.20
40838;BME280;29632;49.168;9.848;2023-01-26T01:38:26;97206.63;;;5.87;50.21
40838;BME280;29632;49.168;9.848;2023-01-26T01:40:53;97198.66;;;5.90;50.25
40838;BME280;29632;49.168;9.848;2023-01-26T01:43:18;97198.56;;;5.92;50.26
40838;BME280;29632;49.168;9.848;2023-01-26T01:45:45;97195.06;;;5.93;50.31
40838;BME280;29632;49.168;9.848;2023-01-26T01:50:54;97196.53;;;5.97;50.13
40838;BME280;29632;49.168;9.848;2023-01-26T01:53:24;97192.16;;;5.97;50.33
40838;BME280;29632;49.168;9.848;2023-01-26T01:55:53;97195.88;;;5.93;50.02
40838;BME280;29632;49.168;9.848;2023-01-26T01:58:20;97194.34;;;5.91;50.42
40838;BME280;29632;49.168;9.848;2023-01-26T02:00:46;97187.59;;;5.88;50.24
40838;BME280;29632;49.168;9.848;2023-01-26T02:03:11;97182.53;;;5.86;50.33
40838;BME280;29632;49.168;9.848;2023-01-26T02:06:08;97183.59;;;5.84;50.49
40838;BME280;29632;49.168;9.848;2023-01-26T02:08:42;97179.31;;;5.83;50.45
40838;BME280;29632;49.168;9.848;2023-01-26T02:11:10;97173.25;;;5.84;50.65
40838;BME280;29632;49.168;9.848;2023-01-26T02:13:38;97168.06;;;5.84;50.09
40838;BME280;29632;49.168;9.848;2023-01-26T02:16:05;97162.78;;;5.85;50.12
40838;BME280;29632;49.168;9.848;2023-01-26T02:18:31;97163.63;;;5.86;50.41
40838;BME280;29632;49.168;9.848;2023-01-26T02:21:04;97166.31;;;5.84;50.08
40838;BME280;29632;49.168;9.848;2023-01-26T02:26:13;97146.69;;;5.82;50.10
40838;BME280;29632;49.168;9.848;2023-01-26T02:28:40;97139.75;;;5.82;50.49
40838;BME280;29632;49.168;9.848;2023-01-26T02:31:07;97134.78;;;5.79;50.15
40838;BME280;29632;49.168;9.848;2023-01-26T02:33:34;97133.09;;;5.78;50.35
40838;BME280;29632;49.168;9.848;2023-01-26T02:35:59;97136.44;;;5.80;50.19
40838;BME280;29632;49.168;9.848;2023-01-26T02:41:31;97137.97;;;5.83;50.49
40838;BME280;29632;49.168;9.848;2023-01-26T02:44:15;97133.63;;;5.83;50.13
40838;BME280;29632;49.168;9.848;2023-01-26T02:46:41;97133.63;;;5.83;50.54
40838;BME280;29632;49.168;9.848;2023-01-26T02:49:07;97130.31;;;5.81;50.41
40838;BME280;29632;49.168;9.848;2023-01-26T02:51:51;97122.91;;;5.77;50.36
40838;BME280;29632;49.168;9.848;2023-01-26T02:54:17;97116.06;;;5.76;50.49
40838;BME280;29632;49.168;9.848;2023-01-26T02:57:01;97118.53;;;5.77;50.82
40838;BME280;29632;49.168;9.848;2023-01-26T02:59:27;97113.28;;;5.79;50.07
40838;BME280;29632;49.168;9.848;2023-01-26T03:01:52;97115.00;;;5.78;50.66
40838;BME280;29632;49.168;9.848;2023-01-26T03:04:19;97112.31;;;5.80;50.52
40838;BME280;29632;49.168;9.848;2023-01-26T03:06:45;97110.47;;;5.82;50.31
40838;BME280;29632;49.168;9.848;2023-01-26T03:09:11;97105.19;;;5.83;50.50
40838;BME280;29632;49.168;9.848;2023-01-26T03:11:36;97099.91;;;5.85;50.59
40838;BME280;29632;49.168;9.848;2023-01-26T03:14:12;97096.50;;;5.84;50.30
40838;BME280;29632;49.168;9.848;2023-01-26T03:16:38;97098.16;;;5.85;50.52
40838;BME280;29632;49.168;9.848;2023-01-26T03:19:05;97088.66;;;5.86;50.54
40838;BME280;29632;49.168;9.848;2023-01-26T03:21:49;97102.38;;;5.86;50.51
40838;BME280;29632;49.168;9.848;2023-01-26T03:24:34;97104.97;;;5.86;50.43
40838;BME280;29632;49.168;9.848;2023-01-26T03:27:18;97095.25;;;5.90;50.67
40838;BME280;29632;49.168;9.848;2023-01-26T03:29:54;97106.09;;;5.95;50.57
40838;BME280;29632;49.168;9.848;2023-01-26T03:32:20;97097.25;;;5.99;50.53
40838;BME280;29632;49.168;9.848;2023-01-26T03:34:46;97102.28;;;6.01;50.31
40838;BME280;29632;49.168;9.848;2023-01-26T03:37:11;97097.00;;;6.02;50.25
40838;BME280;29632;49.168;9.848;2023-01-26T03:39:37;97102.19;;;6.02;50.52
40838;BME280;29632;49.168;9.848;2023-01-26T03:42:21;97099.47;;;6.04;50.32
40838;BME280;29632;49.168;9.848;2023-01-26T03:45:06;97105.47;;;6.04;50.52
40838;BME280;29632;49.168;9.848;2023-01-26T03:47:51;97104.66;;;6.04;50.25
40838;BME280;29632;49.168;9.848;2023-01-26T03:50:35;97101.97;;;6.05;50.46
40838;BME280;29632;49.168;9.848;2023-01-26T03:53:21;97105.38;;;6.06;50.55
40838;BME280;29632;49.168;9.848;2023-01-26T03:56:07;97104.44;;;6.07;50.54
40838;BME280;29632;49.168;9.848;2023-01-26T03:58:50;97100.00;;;6.09;50.63
40838;BME280;29632;49.168;9.848;2023-01-26T04:01:16;97098.13;;;6.11;50.10
40838;BME280;29632;49.168;9.848;2023-01-26T04:03:49;97104.00;;;6.13;50.35
40838;BME280;29632;49.168;9.848;2023-01-26T04:06:34;97101.31;;;6.15;50.13
40838;BME280;29632;49.168;9.848;2023-01-26T04:09:19;97098.72;;;6.15;50.17
40838;BME280;29632;49.168;9.848;2023-01-26T04:11:45;97103.91;;;6.15;50.16
40838;BME280;29632;49.168;9.848;2023-01-26T04:14:13;97098.00;;;6.13;50.28
40838;BME280;29632;49.168;9.848;2023-01-26T04:16:59;97105.97;;;6.10;50.64
40838;BME280;29632;49.168;9.848;2023-01-26T04:19:43;97097.41;;;6.09;50.12
40838;BME280;29632;49.168;9.848;2023-01-26T04:22:28;97102.69;;;6.08;50.59
40838;BME280;29632;49.168;9.848;2023-01-26T04:24:53;97094.91;;;6.08;50.43
40838;BME280;29632;49.168;9.848;2023-01-26T04:27:19;97097.59;;;6.06;51.01
40838;BME280;29632;49.168;9.848;2023-01-26T04:29:45;97090.69;;;6.07;50.44
40838;BME280;29632;49.168;9.848;2023-01-26T04:32:10;97088.00;;;6.08;50.47
40838;BME280;29632;49.168;9.848;2023-01-26T04:34:36;97088.81;;;6.09;50.97
40838;BME280;29632;49.168;9.848;2023-01-26T04:37:02;97092.84;;;6.13;50.51
40838;BME280;29632;49.168;9.848;2023-01-26T04:39:27;97084.97;;;6.14;50.68
40838;BME280;29632;49.168;9.848;2023-01-26T04:41:53;97086.63;;;6.15;50.54
40838;BME280;29632;49.168;9.848;2023-01-26T04:44:18;97078.13;;;6.13;50.60
40838;BME280;29632;49.168;9.848;2023-01-26T04:46:44;97078.97;;;6.14;50.64
40838;BME280;29632;49.168;9.848;2023-01-26T04:49:11;97075.56;;;6.13;50.45
40838;BME280;29632;49.168;9.848;2023-01-26T04:51:37;97082.38;;;6.14;50.41
40838;BME280;29632;49.168;9.848;2023-01-26T04:54:03;97077.31;;;6.13;50.35
40838;BME280;29632;49.168;9.848;2023-01-26T04:56:30;97069.56;;;6.13;50.75
40838;BME280;29632;49.168;9.848;2023-01-26T04:59:01;97080.63;;;6.15;50.71
40838;BME280;29632;49.168;9.848;2023-01-26T05:01:27;97075.44;;;6.15;50.30
40838;BME280;29632;49.168;9.848;2023-01-26T05:03:53;97070.16;;;6.16;50.63
40838;BME280;29632;49.168;9.848;2023-01-26T05:06:19;97078.63;;;6.18;50.76
40838;BME280;29632;49.168;9.848;2023-01-26T05:08:45;97069.13;;;6.19;50.32
40838;BME280;29632;49.168;9.848;2023-01-26T05:11:11;97076.78;;;6.20;50.38
40838;BME280;29632;49.168;9.848;2023-01-26T05:13:36;97076.19;;;6.17;50.01
40838;BME280;29632;49.168;9.848;2023-01-26T05:16:03;97085.09;;;6.13;50.75
40838;BME280;29632;49.168;9.848;2023-01-26T05:18:29;97077.53;;;6.10;50.49
40838;BME280;29632;49.168;9.848;2023-01-26T05:20:55;97083.03;;;6.05;50.53
40838;BME280;29632;49.168;9.848;2023-01-26T05:23:21;97086.66;;;6.02;50.48
40838;BME280;29632;49.168;9.848;2023-01-26T05:25:46;97079.34;;;5.96;50.58
40838;BME280;29632;49.168;9.848;2023-01-26T05:28:12;97078.81;;;5.91;51.02
40838;BME280;29632;49.168;9.848;2023-01-26T05:30:38;97081.81;;;5.85;50.93
40838;BME280;29632;49.168;9.848;2023-01-26T05:33:05;97089.28;;;5.77;51.03
40838;BME280;29632;49.168;9.848;2023-01-26T05:35:32;97081.03;;;5.72;50.84
40838;BME280;29632;49.168;9.848;2023-01-26T05:37:58;97082.06;;;5.69;50.99
40838;BME280;29632;49.168;9.848;2023-01-26T05:40:24;97086.41;;;5.68;51.04
40838;BME280;29632;49.168;9.848;2023-01-26T05:42:51;97090.97;;;5.65;51.50
40838;BME280;29632;49.168;9.848;2023-01-26T05:45:17;97087.44;;;5.66;51.19
40838;BME280;29632;49.168;9.848;2023-01-26T05:47:46;97092.59;;;5.66;51.24
40838;BME280;29632;49.168;9.848;2023-01-26T05:50:13;97097.16;;;5.62;51.14
40838;BME280;29632;49.168;9.848;2023-01-26T05:52:41;97093.53;;;5.65;50.72
40838;BME280;29632;49.168;9.848;2023-01-26T05:55:07;97092.59;;;5.66;50.96
40838;BME280;29632;49.168;9.848;2023-01-26T05:57:32;97090.00;;;5.66;51.35
40838;BME280;29632;49.168;9.848;2023-01-26T05:59:58;97086.31;;;5.70;50.90
40838;BME280;29632;49.168;9.848;2023-01-26T06:02:24;97085.97;;;5.75;51.24
40838;BME280;29632;49.168;9.848;2023-01-26T06:04:51;97087.53;;;5.77;50.69
40838;BME280;29632;49.168;9.848;2023-01-26T06:07:17;97085.66;;;5.79;50.86
40838;BME280;29632;49.168;9.848;2023-01-26T06:09:43;97091.44;;;5.83;50.31
40838;BME280;29632;49.168;9.848;2023-01-26T06:12:14;97087.09;;;5.83;50.47
40838;BME280;29632;49.168;9.848;2023-01-26T06:14:40;97078.50;;;5.83;50.88
40838;BME280;29632;49.168;9.848;2023-01-26T06:17:06;97091.22;;;5.86;50.52
40838;BME280;29632;49.168;9.848;2023-01-26T06:19:32;97084.09;;;5.90;50.86
40838;BME280;29632;49.168;9.848;2023-01-26T06:21:57;97073.44;;;5.94;50.61
40838;BME280;29632;49.168;9.848;2023-01-26T06:24:23;97075.00;;;5.97;50.41
40838;BME280;29632;49.168;9.848;2023-01-26T06:26:48;97080.88;;;5.99;50.36
40838;BME280;29632;49.168;9.848;2023-01-26T06:29:14;97076.31;;;6.02;50.50
40838;BME280;29632;49.168;9.848;2023-01-26T06:31:40;97083.03;;;6.05;49.93
40838;BME280;29632;49.168;9.848;2023-01-26T06:34:06;97089.75;;;6.08;50.12
40838;BME280;29632;49.168;9.848;2023-01-26T06:36:32;97087.88;;;6.10;50.46
40838;BME280;29632;49.168;9.848;2023-01-26T06:38:57;97088.72;;;6.10;50.50
40838;BME280;29632;49.168;9.848;2023-01-26T06:41:23;97086.97;;;6.11;50.40
40838;BME280;29632;49.168;9.848;2023-01-26T06:43:49;97089.31;;;6.14;50.31
40838;BME280;29632;49.168;9.848;2023-01-26T06:46:16;97095.22;;;6.16;50.41
40838;BME280;29632;49.168;9.848;2023-01-26T06:48:42;97094.16;;;6.18;49.95
40838;BME280;29632;49.168;9.848;2023-01-26T06:53:46;97089.72;;;6.20;49.97
40838;BME280;29632;49.168;9.848;2023-01-26T06:56:12;97093.03;;;6.22;50.48
40838;BME280;29632;49.168;9.848;2023-01-26T06:58:40;97081.84;;;6.22;50.07
40838;BME280;29632;49.168;9.848;2023-01-26T07:01:06;97089.59;;;6.22;50.06
40838;BME280;29632;49.168;9.848;2023-01-26T07:03:31;97083.59;;;6.21;50.55
40838;BME280;29632;49.168;9.848;2023-01-26T07:05:57;97093.13;;;6.21;50.17
40838;BME280;29632;49.168;9.848;2023-01-26T07:08:22;97085.25;;;6.22;50.21
40838;BME280;29632;49.168;9.848;2023-01-26T07:10:49;97090.44;;;6.22;50.10
40838;BME280;29632;49.168;9.848;2023-01-26T07:13:14;97101.72;;;6.21;50.14
40838;BME280;29632;49.168;9.848;2023-01-26T07:15:40;97093.94;;;6.21;50.05
40838;BME280;29632;49.168;9.848;2023-01-26T07:18:05;97096.44;;;6.23;50.13
40838;BME280;29632;49.168;9.848;2023-01-26T07:20:31;97101.38;;;6.26;50.23
40838;BME280;29632;49.168;9.848;2023-01-26T07:23:00;97103.03;;;6.27;50.36
40838;BME280;29632;49.168;9.848;2023-01-26T07:25:25;97101.88;;;6.31;50.34
40838;BME280;29632;49.168;9.848;2023-01-26T07:27:58;97098.34;;;6.32;50.10
40838;BME280;29632;49.168;9.848;2023-01-26T07:30:24;97105.09;;;6.35;50.24
40838;BME280;29632;49.168;9.848;2023-01-26T07:32:50;97098.13;;;6.35;49.97
40838;BME280;29632;49.168;9.848;2023-01-26T07:35:16;97109.19;;;6.37;50.17
40838;BME280;29632;49.168;9.848;2023-01-26T07:37:42;97103.91;;;6.39;50.12
40838;BME280;29632;49.168;9.848;2023-01-26T07:40:08;97104.72;;;6.39;49.55
40838;BME280;29632;49.168;9.848;2023-01-26T07:42:34;97114.06;;;6.42;49.91
40838;BME280;29632;49.168;9.848;2023-01-26T07:45:00;97110.53;;;6.43;50.14
40838;BME280;29632;49.168;9.848;2023-01-26T07:47:26;97111.47;;;6.42;49.73
40838;BME280;29632;49.168;9.848;2023-01-26T07:49:52;97108.06;;;6.41;50.13
40838;BME280;29632;49.168;9.848;2023-01-26T07:52:17;97108.06;;;6.41;50.10
40838;BME280;29632;49.168;9.848;2023-01-26T07:54:43;97102.88;;;6.41;49.94
40838;BME280;29632;49.168;9.848;2023-01-26T07:57:09;97107.97;;;6.43;50.03
40838;BME280;29632;49.168;9.848;2023-01-26T07:59:36;97097.47;;;6.45;49.70
40838;BME280;29632;49.168;9.848;2023-01-26T08:02:01;97095.63;;;6.47;50.23
40838;BME280;29632;49.168;9.848;2023-01-26T08:04:27;97097.25;;;6.48;49.84
40838;BME280;29632;49.168;9.848;2023-01-26T08:06:53;97092.91;;;6.48;49.88
40838;BME280;29632;49.168;9.848;2023-01-26T08:09:18;97090.31;;;6.48;49.91
40838;BME280;29632;49.168;9.848;2023-01-26T08:11:44;97094.56;;;6.49;49.88
40838;BME280;29632;49.168;9.848;2023-01-26T08:14:10;97097.25;;;6.48;50.31
40838;BME280;29632;49.168;9.848;2023-01-26T08:16:35;97093.84;;;6.47;50.23
40838;BME280;29632;49.168;9.848;2023-01-26T08:19:01;97094.16;;;6.42;50.04
40838;BME280;29632;49.168;9.848;2023-01-26T08:21:27;97088.75;;;6.34;50.14
40838;BME280;29632;49.168;9.848;2023-01-26T08:23:53;97089.28;;;6.27;50.13
40838;BME280;29632;49.168;9.848;2023-01-26T08:26:20;97083.72;;;6.20;50.20
40838;BME280;29632;49.168;9.848;2023-01-26T08:28:45;97086.03;;;6.12;50.50
40838;BME280;29632;49.168;9.848;2023-01-26T08:31:16;97080.34;;;6.07;50.58
40838;BME280;29632;49.168;9.848;2023-01-26T08:33:45;97079.84;;;6.01;50.43
40838;BME280;29632;49.168;9.848;2023-01-26T08:36:12;97080.34;;;5.94;50.62
40838;BME280;29632;49.168;9.848;2023-01-26T08:38:38;97090.69;;;5.94;50.70
40838;BME280;29632;49.168;9.848;2023-01-26T08:41:04;97074.25;;;5.95;50.75
40838;BME280;29632;49.168;9.848;2023-01-26T08:43:30;97075.06;;;5.95;50.61
40838;BME280;29632;49.168;9.848;2023-01-26T08:45:56;97079.34;;;5.96;50.34
40838;BME280;29632;49.168;9.848;2023-01-26T08:48:22;97077.66;;;5.95;50.69
40838;BME280;29632;49.168;9.848;2023-01-26T08:50:52;97083.47;;;5.99;50.67
40838;BME280;29632;49.168;9.848;2023-01-26T08:53:18;97080.47;;;6.05;50.95
40838;BME280;29632;49.168;9.848;2023-01-26T08:55:44;97081.88;;;6.09;50.74
40838;BME280;29632;49.168;9.848;2023-01-26T08:58:09;97080.25;;;6.08;50.42
40838;BME280;29632;49.168;9.848;2023-01-26T09:00:35;97071.44;;;6.11;50.11
40838;BME280;29632;49.168;9.848;2023-01-26T09:03:03;97066.16;;;6.12;50.34
40838;BME280;29632;49.168;9.848;2023-01-26T09:05:37;97070.16;;;6.16;50.42
40838;BME280;29632;49.168;9.848;2023-01-26T09:08:04;97067.59;;;6.16;50.57
40838;BME280;29632;49.168;9.848;2023-01-26T09:10:31;97072.16;;;6.13;50.18
40838;BME280;29632;49.168;9.848;2023-01-26T09:12:57;97070.72;;;6.09;50.29
40838;BME280;29632;49.168;9.848;2023-01-26T09:15:23;97077.66;;;6.08;50.56
40838;BME280;29632;49.168;9.848;2023-01-26T09:17:49;97081.06;;;6.09;49.99
40838;BME280;29632;49.168;9.848;2023-01-26T09:20:15;97083.75;;;6.07;50.26
40838;BME280;29632;49.168;9.848;2023-01-26T09:22:41;97084.56;;;6.08;50.30
40838;BME280;29632;49.168;9.848;2023-01-26T09:25:07;97075.91;;;6.09;50.28
40838;BME280;29632;49.168;9.848;2023-01-26T09:27:34;97097.09;;;6.14;50.32
40838;BME280;29632;49.168;9.848;2023-01-26T09:30:01;97089.44;;;6.12;50.50
40838;BME280;29632;49.168;9.848;2023-01-26T09:32:27;97086.03;;;6.12;50.36
40838;BME280;29632;49.168;9.848;2023-01-26T09:34:52;97088.72;;;6.10;50.42
40838;BME280;29632;49.168;9.848;2023-01-26T09:37:18;97080.97;;;6.10;50.58
40838;BME280;29632;49.168;9.848;2023-01-26T09:39:44;97084.47;;;6.09;50.54
40838;BME280;29632;49.168;9.848;2023-01-26T09:44:51;97085.34;;;5.97;50.51
40838;BME280;29632;49.168;9.848;2023-01-26T09:49:55;97096.91;;;5.91;50.89
40838;BME280;29632;49.168;9.848;2023-01-26T09:52:37;97091.94;;;5.88;50.45
40838;BME280;29632;49.168;9.848;2023-01-26T09:55:09;97090.94;;;5.91;50.98
40838;BME280;29632;49.168;9.848;2023-01-26T10:06:03;97089.50;;;5.99;50.68
40838;BME280;29632;49.168;9.848;2023-01-26T10:08:35;97091.13;;;6.00;50.49
40838;BME280;29632;49.168;9.848;2023-01-26T10:11:09;97091.94;;;6.01;50.83
40838;BME280;29632;49.168;9.848;2023-01-26T10:13:36;97091.00;;;6.02;50.70
40838;BME280;29632;49.168;9.848;2023-01-26T10:16:05;97091.72;;;6.04;50.05
40838;BME280;29632;49.168;9.848;2023-01-26T10:18:54;97095.47;;;6.00;50.31
40838;BME280;29632;49.168;9.848;2023-01-26T10:21:23;97099.50;;;5.91;50.37
40838;BME280;29632;49.168;9.848;2023-01-26T10:23:49;97091.03;;;5.89;50.49
40838;BME280;29632;49.168;9.848;2023-01-26T10:26:19;97097.00;;;5.90;50.56
40838;BME280;29632;49.168;9.848;2023-01-26T10:28:45;97089.97;;;5.92;50.20
40838;BME280;29632;49.168;9.848;2023-01-26T10:31:23;97085.50;;;5.94;50.89
40838;BME280;29632;49.168;9.848;2023-01-26T10:33:55;97087.91;;;5.97;50.30
40838;BME280;29632;49.168;9.848;2023-01-26T10:36:21;97089.69;;;5.96;50.57
40838;BME280;29632;49.168;9.848;2023-01-26T10:38:48;97083.56;;;5.97;50.33
40838;BME280;29632;49.168;9.848;2023-01-26T10:43:42;97095.13;;;6.04;50.14
40838;BME280;29632;49.168;9.848;2023-01-26T10:46:39;97097.31;;;6.11;50.22
40838;BME280;29632;49.168;9.848;2023-01-26T10:51:36;97094.16;;;6.18;50.54
40838;BME280;29632;49.168;9.848;2023-01-26T10:56:58;97092.81;;;6.26;50.43
40838;BME280;29632;49.168;9.848;2023-01-26T10:59:37;97090.84;;;6.29;50.02
40838;BME280;29632;49.168;9.848;2023-01-26T11:02:19;97085.41;;;6.32;49.98
40838;BME280;29632;49.168;9.848;2023-01-26T11:07:39;97087.78;;;6.35;49.68
40838;BME280;29632;49.168;9.848;2023-01-26T11:10:30;97085.09;;;6.37;49.63
40838;BME280;29632;49.168;9.848;2023-01-26T11:13:16;97085.19;;;6.35;49.90
40838;BME280;29632;49.168;9.848;2023-01-26T11:15:50;97081.78;;;6.35;49.99
40838;BME280;29632;49.168;9.848;2023-01-26T11:18:59;97075.91;;;6.33;49.85
40838;BME280;29632;49.168;9.848;2023-01-26T11:21:47;97076.03;;;6.31;50.03
40838;BME280;29632;49.168;9.848;2023-01-26T11:24:38;97074.16;;;6.33;50.03
40838;BME280;29632;49.168;9.848;2023-01-26T11:35:11;97062.75;;;6.36;50.00
40838;BME280;29632;49.168;9.848;2023-01-26T11:46:07;97048.22;;;6.22;49.66
40838;BME280;29632;49.168;9.848;2023-01-26T11:59:35;97034.16;;;6.13;50.21
40838;BME280;29632;49.168;9.848;2023-01-26T12:02:13;97029.97;;;6.12;50.15
40838;BME280;29632;49.168;9.848;2023-01-26T12:04:42;97024.56;;;6.15;50.23
40838;BME280;29632;49.168;9.848;2023-01-26T12:10:16;97026.00;;;6.19;50.24
40838;BME280;29632;49.168;9.848;2023-01-26T12:12:50;97024.94;;;6.22;50.26
40838;BME280;29632;49.168;9.848;2023-01-26T12:15:21;97010.25;;;6.22;50.03
40838;BME280;29632;49.168;9.848;2023-01-26T12:21:01;96997.94;;;6.26;49.70
40838;BME280;29632;49.168;9.848;2023-01-26T12:26:12;96993.56;;;6.27;49.88
40838;BME280;29632;49.168;9.848;2023-01-26T12:33:55;96992.19;;;6.34;50.05
40838;BME280;29632;49.168;9.848;2023-01-26T12:42:33;96981.00;;;6.33;49.59
40838;BME280;29632;49.168;9.848;2023-01-26T12:45:06;96979.34;;;6.32;49.63
40838;BME280;29632;49.168;9.848;2023-01-26T12:47:54;96971.47;;;6.34;49.81
40838;BME280;29632;49.168;9.848;2023-01-26T12:50:37;96977.38;;;6.36;50.17
40838;BME280;29632;49.168;9.848;2023-01-26T12:53:08;96973.84;;;6.37;49.87
40838;BME280;29632;49.168;9.848;2023-01-26T12:58:14;96972.06;;;6.37;49.64
40838;BME280;29632;49.168;9.848;2023-01-26T13:00:51;96983.03;;;6.41;49.84
40838;BME280;29632;49.168;9.848;2023-01-26T13:03:27;96976.94;;;6.42;49.40
40838;BME280;29632;49.168;9.848;2023-01-26T13:06:01;96976.00;;;6.43;49.85
40838;BME280;29632;49.168;9.848;2023-01-26T13:11:06;96972.25;;;6.47;49.45
40838;BME280;29632;49.168;9.848;2023-01-26T13:13:34;96972.13;;;6.49;49.38
40838;BME280;29632;49.168;9.848;2023-01-26T13:26:45;96968.13;;;6.56;49.66
40838;BME280;29632;49.168;9.848;2023-01-26T13:31:55;96963.06;;;6.54;49.36
40838;BME280;29632;49.168;9.848;2023-01-26T13:34:40;96956.97;;;6.55;49.29
40838;BME280;29632;49.168;9.848;2023-01-26T13:37:27;96964.00;;;6.53;49.89
40838;BME280;29632;49.168;9.848;2023-01-26T13:39:59;96960.72;;;6.51;49.44
40838;BME280;29632;49.168;9.848;2023-01-26T13:42:36;96954.00;;;6.49;49.42
40838;BME280;29632;49.168;9.848;2023-01-26T13:45:28;96957.03;;;6.42;49.90
40838;BME280;29632;49.168;9.848;2023-01-26T13:47:55;96957.63;;;6.35;49.97
40838;BME280;29632;49.168;9.848;2023-01-26T13:52:53;96965.09;;;6.27;49.95
40838;BME280;29632;49.168;9.848;2023-01-26T13:55:27;96963.59;;;6.24;50.12
40838;BME280;29632;49.168;9.848;2023-01-26T13:58:13;96970.28;;;6.27;50.27
40838;BME280;29632;49.168;9.848;2023-01-26T14:00:39;96960.66;;;6.29;50.00
40838;BME280;29632;49.168;9.848;2023-01-26T14:03:18;96964.78;;;6.31;50.23
40838;BME280;29632;49.168;9.848;2023-01-26T14:05:53;96969.00;;;6.32;49.75
40838;BME280;29632;49.168;9.848;2023-01-26T14:08:20;96964.69;;;6.33;49.53
40838;BME280;29632;49.168;9.848;2023-01-26T14:10:47;96970.56;;;6.35;50.09
40838;BME280;29632;49.168;9.848;2023-01-26T14:13:28;96973.84;;;6.37;49.90
40838;BME280;29632;49.168;9.848;2023-01-26T14:15:57;96963.59;;;6.35;49.77
40838;BME280;29632;49.168;9.848;2023-01-26T14:18:23;96963.59;;;6.35;49.72
40838;BME280;29632;49.168;9.848;2023-01-26T14:20:49;96972.06;;;6.37;49.90
40838;BME280;29632;49.168;9.848;2023-01-26T14:23:21;96974.78;;;6.36;49.14
40838;BME280;29632;49.168;9.848;2023-01-26T14:28:26;96978.53;;;6.32;49.77
40838;BME280;29632;49.168;9.848;2023-01-26T14:31:02;96978.16;;;6.25;50.36
40838;BME280;29632;49.168;9.848;2023-01-26T14:33:30;96983.91;;;6.17;50.23
40838;BME280;29632;49.168;9.848;2023-01-26T14:36:00;96987.16;;;6.08;49.85
40838;BME280;29632;49.168;9.848;2023-01-26T14:38:28;96984.91;;;6.03;49.84
40838;BME280;29632;49.168;9.848;2023-01-26T14:40:58;96982.41;;;6.02;50.31
40838;BME280;29632;49.168;9.848;2023-01-26T14:43:25;96977.13;;;6.03;50.36
40838;BME280;29632;49.168;9.848;2023-01-26T14:48:25;96985.59;;;6.05;50.15
40838;BME280;29632;49.168;9.848;2023-01-26T14:50:54;96995.03;;;6.07;50.27
40838;BME280;29632;49.168;9.848;2023-01-26T14:53:21;96990.56;;;6.09;50.07
40838;BME280;29632;49.168;9.848;2023-01-26T14:55:48;96993.84;;;6.11;50.29
40838;BME280;29632;49.168;9.848;2023-01-26T14:58:29;96988.78;;;6.09;50.31
40838;BME280;29632;49.168;9.848;2023-01-26T15:00:57;96993.25;;;6.07;49.86
40838;BME280;29632;49.168;9.848;2023-01-26T15:03:36;97003.00;;;6.03;50.57
40838;BME280;29632;49.168;9.848;2023-01-26T15:06:19;97000.72;;;5.99;50.40
40838;BME280;29632;49.168;9.848;2023-01-26T15:09:19;96998.66;;;5.91;50.08
40838;BME280;29632;49.168;9.848;2023-01-26T15:11:57;96999.69;;;5.89;50.55